createdAt,value
2018-10-16T00:01:08.950Z,13.00
2018-10-16T00:06:13.800Z,12.90
2018-10-16T00:11:17.482Z,12.90
2018-10-16T00:16:21.819Z,12.90
2018-10-16T00:21:25.795Z,12.90
2018-10-16T00:26:30.295Z,13.00
2018-10-16T00:31:33.935Z,12.90
2018-10-16T00:36:38.613Z,12.80
2018-10-16T00:41:42.700Z,12.70
2018-10-16T00:46:46.324Z,12.70
2018-10-16T00:51:49.930Z,12.60
2018-10-16T00:56:53.981Z,12.50
2018-10-16T01:01:57.587Z,12.40
2018-10-16T01:07:01.164Z,12.30
2018-10-16T01:12:05.319Z,12.30
2018-10-16T01:17:09.181Z,12.20
2018-10-16T01:22:12.763Z,12.10
2018-10-16T01:27:16.744Z,12.10
2018-10-16T01:32:21.301Z,12.10
2018-10-16T01:37:26.417Z,12.10
2018-10-16T01:42:30.420Z,12.00
2018-10-16T01:47:34.028Z,12.00
2018-10-16T01:52:38.366Z,11.90
2018-10-16T01:57:41.964Z,11.80
2018-10-16T02:02:46.457Z,11.80
2018-10-16T02:07:49.937Z,11.70
2018-10-16T02:12:53.512Z,11.60
2018-10-16T02:17:57.148Z,11.60
2018-10-16T02:23:01.439Z,11.60
2018-10-16T02:28:05.530Z,11.70
2018-10-16T02:33:09.129Z,11.70
2018-10-16T02:38:13.313Z,11.70
2018-10-16T02:43:16.948Z,11.60
2018-10-16T02:48:20.521Z,11.40
2018-10-16T02:53:26.428Z,11.40
2018-10-16T02:58:29.996Z,11.30
2018-10-16T03:03:35.807Z,11.20
2018-10-16T03:08:39.400Z,11.20
2018-10-16T03:13:42.980Z,11.20
2018-10-16T03:18:46.892Z,11.10
2018-10-16T03:23:50.471Z,11.10
2018-10-16T03:28:54.687Z,11.10
2018-10-16T03:33:58.302Z,11.00
2018-10-16T03:39:04.601Z,11.00
2018-10-16T03:44:10.682Z,10.90
2018-10-16T03:49:14.282Z,10.90
2018-10-16T03:54:18.098Z,10.90
2018-10-16T03:59:21.686Z,11.00
2018-10-16T04:04:25.328Z,11.00
2018-10-16T04:09:28.896Z,11.00
2018-10-16T04:14:32.545Z,11.00
2018-10-16T04:19:36.145Z,10.80
2018-10-16T04:24:40.488Z,10.70
2018-10-16T04:29:44.599Z,10.70
2018-10-16T04:34:48.679Z,10.60
2018-10-16T04:39:52.335Z,10.60
2018-10-16T04:44:56.190Z,10.60
2018-10-16T04:50:00.404Z,10.50
2018-10-16T04:55:04.464Z,10.50
2018-10-16T05:00:08.972Z,10.40
2018-10-16T05:05:18.549Z,10.50
2018-10-16T05:10:22.517Z,10.70
2018-10-16T05:15:34.869Z,10.80
2018-10-16T05:20:38.456Z,10.70
2018-10-16T05:25:42.026Z,10.70
2018-10-16T05:30:45.679Z,10.70
2018-10-16T05:35:49.274Z,10.70
2018-10-16T05:40:53.233Z,10.60
2018-10-16T05:45:56.840Z,10.50
2018-10-16T05:51:00.433Z,10.50
2018-10-16T05:56:06.576Z,10.40
2018-10-16T06:01:10.199Z,10.40
2018-10-16T06:06:13.970Z,10.50
2018-10-16T06:11:17.559Z,10.60
2018-10-16T06:16:21.115Z,10.60
2018-10-16T06:21:25.000Z,10.60
2018-10-16T06:26:28.679Z,10.70
2018-10-16T06:31:32.264Z,10.70
2018-10-16T06:36:35.934Z,10.80
2018-10-16T06:41:39.594Z,10.90
2018-10-16T06:46:43.440Z,11.10
2018-10-16T06:51:46.935Z,11.20
2018-10-16T06:56:50.538Z,11.40
2018-10-16T07:01:54.132Z,11.60
2018-10-16T07:06:58.026Z,11.80
2018-10-16T07:12:01.492Z,12.00
2018-10-16T07:17:06.177Z,12.20
2018-10-16T07:22:12.512Z,12.50
2018-10-16T07:27:17.121Z,12.70
2018-10-16T07:32:21.485Z,12.90
2018-10-16T07:37:26.166Z,13.10
2018-10-16T07:42:29.772Z,13.50
2018-10-16T07:47:33.481Z,13.70
2018-10-16T07:52:37.420Z,13.80
2018-10-16T07:57:41.894Z,14.00
2018-10-16T08:02:46.232Z,14.10
2018-10-16T08:07:49.787Z,14.30
2018-10-16T08:12:54.061Z,14.60
2018-10-16T08:17:57.709Z,14.60
2018-10-16T08:23:01.316Z,14.70
2018-10-16T08:28:05.017Z,14.80
2018-10-16T08:33:08.639Z,14.90
2018-10-16T08:40:20.525Z,15.20
2018-10-16T08:45:35.281Z,15.60
2018-10-16T08:50:50.669Z,15.60
2018-10-16T08:55:54.541Z,16.20
2018-10-16T09:00:58.112Z,16.80
2018-10-16T09:06:01.701Z,17.70
2018-10-16T09:11:05.334Z,18.30
2018-10-16T09:16:09.360Z,18.90
2018-10-16T09:21:13.043Z,21.00
2018-10-16T09:26:19.654Z,25.10
2018-10-16T09:31:24.248Z,27.10
2018-10-16T09:36:28.627Z,28.90
2018-10-16T09:41:32.228Z,29.60
2018-10-16T09:46:35.924Z,28.70
2018-10-16T09:51:41.410Z,28.50
2018-10-16T09:56:45.047Z,28.90
2018-10-16T10:01:52.841Z,30.30
2018-10-16T10:06:56.687Z,30.20
2018-10-16T10:12:00.280Z,30.60
2018-10-16T10:17:03.924Z,30.50
2018-10-16T10:22:07.559Z,30.50
2018-10-16T10:27:12.106Z,30.60
2018-10-16T10:32:15.672Z,29.20
2018-10-16T10:37:19.245Z,28.80
2018-10-16T10:42:23.681Z,29.00
2018-10-16T10:47:27.535Z,28.90
2018-10-16T10:52:31.198Z,28.10
2018-10-16T10:57:35.280Z,26.80
2018-10-16T11:02:39.803Z,26.40
2018-10-16T11:07:49.090Z,26.10
2018-10-16T11:12:52.712Z,25.90
2018-10-16T11:17:56.406Z,26.00
2018-10-16T11:23:00.356Z,26.00
2018-10-16T11:28:04.230Z,26.00
2018-10-16T11:33:07.864Z,25.80
2018-10-16T11:43:15.652Z,26.00
2018-10-16T11:48:19.780Z,26.20
2018-10-16T11:53:23.363Z,26.20
2018-10-16T11:58:26.912Z,26.40
2018-10-16T12:03:30.503Z,26.40
2018-10-16T12:08:34.348Z,26.40
2018-10-16T12:13:37.945Z,25.60
2018-10-16T12:19:16.719Z,25.80
2018-10-16T12:24:20.275Z,26.60
2018-10-16T12:29:23.861Z,26.00
2018-10-16T12:34:27.988Z,26.20
2018-10-16T12:39:31.603Z,26.60
2018-10-16T12:44:35.161Z,27.10
2018-10-16T12:49:38.984Z,27.30
2018-10-16T12:54:44.329Z,27.80
2018-10-16T12:59:47.896Z,27.80
2018-10-16T13:15:06.900Z,29.70
2018-10-16T13:25:15.773Z,29.10
2018-10-16T13:35:23.571Z,29.00
2018-10-16T13:40:28.134Z,29.40
2018-10-16T13:50:40.900Z,29.50
2018-10-16T13:55:45.318Z,29.50
2018-10-16T14:00:49.173Z,29.80
2018-10-16T14:05:53.091Z,29.80
2018-10-16T14:10:56.992Z,29.80
2018-10-16T14:16:01.472Z,29.90
2018-10-16T14:21:05.560Z,29.80
2018-10-16T14:26:11.307Z,29.70
2018-10-16T14:31:15.272Z,30.20
2018-10-16T14:36:18.914Z,31.00
2018-10-16T14:41:22.547Z,31.20
2018-10-16T14:51:33.289Z,31.20
2018-10-16T14:56:36.887Z,30.90
2018-10-16T15:01:40.993Z,30.60
2018-10-16T15:06:44.698Z,30.50
2018-10-16T15:11:49.165Z,30.00
2018-10-16T15:16:52.796Z,29.90
2018-10-16T15:21:56.539Z,29.70
2018-10-16T15:27:04.160Z,29.40
2018-10-16T15:32:07.838Z,29.40
2018-10-16T15:37:11.436Z,29.20
2018-10-16T15:42:15.070Z,29.10
2018-10-16T15:47:18.938Z,28.80
2018-10-16T15:52:22.496Z,28.90
2018-10-16T15:57:26.599Z,28.70
2018-10-16T16:02:30.997Z,28.50
2018-10-16T16:07:34.966Z,28.00
2018-10-16T16:12:38.772Z,27.20
2018-10-16T16:17:43.251Z,26.00
2018-10-16T16:22:48.029Z,25.40
2018-10-16T16:27:53.330Z,25.20
2018-10-16T16:32:57.296Z,24.30
2018-10-16T16:38:01.287Z,24.00
2018-10-16T16:43:05.022Z,23.40
2018-10-16T16:48:10.717Z,23.40
2018-10-16T16:53:14.398Z,22.60
2018-10-16T16:58:18.642Z,22.20
2018-10-16T17:03:22.638Z,21.80
2018-10-16T17:08:26.258Z,21.40
2018-10-16T17:13:30.016Z,21.20
2018-10-16T17:18:33.701Z,21.00
2018-10-16T17:23:38.779Z,20.90
2018-10-16T17:28:42.451Z,20.80
2018-10-16T17:33:46.369Z,20.40
2018-10-16T17:38:49.946Z,20.10
2018-10-16T17:43:53.783Z,20.10
2018-10-16T17:48:57.435Z,19.90
2018-10-16T17:54:01.256Z,19.60
2018-10-16T17:59:04.882Z,19.10
2018-10-16T18:04:08.499Z,18.90
2018-10-16T18:09:12.214Z,18.70
2018-10-16T18:14:15.920Z,18.50
2018-10-16T18:19:20.216Z,18.30
2018-10-16T18:24:24.069Z,18.10
2018-10-16T18:29:28.100Z,18.00
2018-10-16T18:34:33.538Z,17.80
2018-10-16T18:39:37.175Z,17.60
2018-10-16T18:44:41.205Z,17.60
2018-10-16T18:49:44.788Z,17.50
2018-10-16T18:54:48.484Z,17.40
2018-10-16T18:59:52.086Z,17.30
2018-10-16T19:04:55.652Z,17.20
2018-10-16T19:09:59.900Z,17.10
2018-10-16T19:15:04.306Z,17.00
2018-10-16T19:20:09.418Z,16.80
2018-10-16T19:25:14.476Z,16.70
2018-10-16T19:30:18.553Z,16.50
2018-10-16T19:35:23.000Z,16.30
2018-10-16T19:40:26.780Z,16.20
2018-10-16T19:45:30.417Z,16.10
2018-10-16T19:50:34.051Z,16.10
2018-10-16T19:55:37.816Z,16.20
2018-10-16T20:00:41.428Z,16.20
2018-10-16T20:05:46.137Z,16.10
2018-10-16T20:10:49.842Z,16.10
2018-10-16T20:15:53.654Z,15.90
2018-10-16T20:20:57.424Z,15.70
2018-10-16T20:26:01.288Z,15.50
2018-10-16T20:31:05.289Z,15.40
2018-10-16T20:36:08.999Z,15.20
2018-10-16T20:41:14.172Z,15.20
2018-10-16T20:46:17.791Z,15.10
2018-10-16T20:51:21.363Z,15.00
2018-10-16T20:56:24.975Z,14.80
2018-10-16T21:01:31.891Z,14.70
2018-10-16T21:06:36.403Z,14.70
2018-10-16T21:11:39.907Z,14.60
2018-10-16T21:16:44.726Z,14.60
2018-10-16T21:21:51.554Z,14.60
2018-10-16T21:27:09.057Z,14.40
2018-10-16T21:32:12.698Z,14.20
2018-10-16T21:37:16.893Z,14.20
2018-10-16T21:42:21.432Z,14.10
2018-10-16T21:47:25.007Z,14.10
2018-10-16T21:52:28.718Z,14.00
2018-10-16T21:57:32.576Z,13.90
2018-10-16T22:02:41.816Z,13.90
2018-10-16T22:07:45.430Z,13.90
2018-10-16T22:12:49.651Z,13.80
2018-10-16T22:17:53.271Z,13.70
2018-10-16T22:22:57.218Z,13.60
2018-10-16T22:28:00.868Z,13.50
2018-10-16T22:33:04.799Z,13.40
2018-10-16T22:38:09.158Z,13.30
2018-10-16T22:43:17.595Z,13.20
2018-10-16T22:48:21.162Z,13.10
2018-10-16T22:53:24.725Z,13.10
2018-10-16T22:58:29.028Z,13.10
2018-10-16T23:03:32.598Z,13.00
2018-10-16T23:08:36.155Z,12.90
2018-10-16T23:13:39.708Z,12.80
2018-10-16T23:18:43.554Z,12.80
2018-10-16T23:23:47.170Z,12.70
2018-10-16T23:28:50.989Z,12.70
2018-10-16T23:33:55.200Z,12.60
2018-10-16T23:38:58.823Z,12.60
2018-10-16T23:44:02.409Z,12.50
2018-10-16T23:49:06.743Z,12.40
2018-10-16T23:54:10.604Z,12.40
2018-10-16T23:59:14.233Z,12.40
